sensor_id;sensor_type;location;lat;lon;timestamp;P1;durP1;ratioP1;P2;durP2;ratioP2
8580;SDS011;4328;48.622;9.230;2022-11-20T00:01:18;3.30;;;3.00;;
8580;SDS011;4328;48.622;9.230;2022-11-20T00:03:45;6.77;;;3.10;;
8580;SDS011;4328;48.622;9.230;2022-11-20T00:06:13;6.10;;;3.20;;
8580;SDS011;4328;48.622;9.230;2022-11-20T00:08:41;3.00;;;2.80;;
8580;SDS011;4328;48.622;9.230;2022-11-20T00:11:08;4.17;;;2.97;;
8580;SDS011;4328;48.622;9.230;2022-11-20T00:13:35;3.23;;;2.77;;
8580;SDS011;4328;48.622;9.230;2022-11-20T00:16:03;3.17;;;2.87;;
8580;SDS011;4328;48.622;9.230;2022-11-20T00:18:30;3.27;;;2.90;;
8580;SDS011;4328;48.622;9.230;2022-11-20T00:21:00;3.13;;;2.60;;
8580;SDS011;4328;48.622;9.230;2022-11-20T00:23:27;2.67;;;2.47;;
8580;SDS011;4328;48.622;9.230;2022-11-20T00:25:54;3.30;;;3.00;;
8580;SDS011;4328;48.622;9.230;2022-11-20T00:28:20;4.40;;;3.13;;
8580;SDS011;4328;48.622;9.230;2022-11-20T00:30:47;3.03;;;2.83;;
8580;SDS011;4328;48.622;9.230;2022-11-20T00:33:13;3.77;;;3.30;;
8580;SDS011;4328;48.622;9.230;2022-11-20T00:35:40;3.70;;;2.80;;
8580;SDS011;4328;48.622;9.230;2022-11-20T00:38:06;3.23;;;2.93;;
8580;SDS011;4328;48.622;9.230;2022-11-20T00:40:34;2.77;;;2.50;;
8580;SDS011;4328;48.622;9.230;2022-11-20T00:43:00;2.70;;;2.50;;
8580;SDS011;4328;48.622;9.230;2022-11-20T00:45:27;2.73;;;2.53;;
8580;SDS011;4328;48.622;9.230;2022-11-20T00:47:53;2.90;;;2.70;;
8580;SDS011;4328;48.622;9.230;2022-11-20T00:50:19;4.20;;;2.70;;
8580;SDS011;4328;48.622;9.230;2022-11-20T00:52:46;2.90;;;2.70;;
8580;SDS011;4328;48.622;9.230;2022-11-20T00:55:12;2.67;;;2.40;;
8580;SDS011;4328;48.622;9.230;2022-11-20T00:57:40;2.60;;;2.40;;
8580;SDS011;4328;48.622;9.230;2022-11-20T01:00:07;3.20;;;2.70;;
8580;SDS011;4328;48.622;9.230;2022-11-20T01:02:33;3.07;;;2.83;;
8580;SDS011;4328;48.622;9.230;2022-11-20T01:05:00;3.10;;;2.90;;
8580;SDS011;4328;48.622;9.230;2022-11-20T01:07:26;2.93;;;2.73;;
8580;SDS011;4328;48.622;9.230;2022-11-20T01:09:52;3.87;;;2.70;;
8580;SDS011;4328;48.622;9.230;2022-11-20T01:12:19;2.97;;;2.63;;
8580;SDS011;4328;48.622;9.230;2022-11-20T01:14:48;2.70;;;2.50;;
8580;SDS011;4328;48.622;9.230;2022-11-20T01:17:14;4.73;;;2.70;;
8580;SDS011;4328;48.622;9.230;2022-11-20T01:19:40;3.23;;;2.60;;
8580;SDS011;4328;48.622;9.230;2022-11-20T01:22:07;2.93;;;2.47;;
8580;SDS011;4328;48.622;9.230;2022-11-20T01:24:33;3.43;;;2.50;;
8580;SDS011;4328;48.622;9.230;2022-11-20T01:27:00;2.50;;;2.30;;
8580;SDS011;4328;48.622;9.230;2022-11-20T01:29:26;3.40;;;2.50;;
8580;SDS011;4328;48.622;9.230;2022-11-20T01:31:54;3.40;;;3.10;;
8580;SDS011;4328;48.622;9.230;2022-11-20T01:34:21;3.00;;;2.70;;
8580;SDS011;4328;48.622;9.230;2022-11-20T01:36:48;3.53;;;2.80;;
8580;SDS011;4328;48.622;9.230;2022-11-20T01:39:16;4.57;;;2.80;;
8580;SDS011;4328;48.622;9.230;2022-11-20T01:41:43;3.07;;;2.87;;
8580;SDS011;4328;48.622;9.230;2022-11-20T01:44:47;3.27;;;2.97;;
8580;SDS011;4328;48.622;9.230;2022-11-20T01:47:17;3.53;;;3.10;;
8580;SDS011;4328;48.622;9.230;2022-11-20T01:49:45;3.70;;;3.13;;
8580;SDS011;4328;48.622;9.230;2022-11-20T01:52:13;3.00;;;2.80;;
8580;SDS011;4328;48.622;9.230;2022-11-20T01:54:42;2.90;;;2.70;;
8580;SDS011;4328;48.622;9.230;2022-11-20T01:57:10;3.10;;;2.80;;
8580;SDS011;4328;48.622;9.230;2022-11-20T01:59:38;3.07;;;2.80;;
8580;SDS011;4328;48.622;9.230;2022-11-20T02:02:06;3.23;;;3.03;;
8580;SDS011;4328;48.622;9.230;2022-11-20T02:04:34;6.20;;;3.23;;
8580;SDS011;4328;48.622;9.230;2022-11-20T02:07:01;3.23;;;2.90;;
8580;SDS011;4328;48.622;9.230;2022-11-20T02:09:28;3.00;;;2.80;;
8580;SDS011;4328;48.622;9.230;2022-11-20T02:11:54;4.03;;;3.10;;
8580;SDS011;4328;48.622;9.230;2022-11-20T02:14:21;3.13;;;2.90;;
8580;SDS011;4328;48.622;9.230;2022-11-20T02:16:47;3.07;;;2.80;;
8580;SDS011;4328;48.622;9.230;2022-11-20T02:19:16;3.57;;;2.97;;
8580;SDS011;4328;48.622;9.230;2022-11-20T02:21:47;3.40;;;2.73;;
8580;SDS011;4328;48.622;9.230;2022-11-20T02:24:16;3.47;;;2.80;;
8580;SDS011;4328;48.622;9.230;2022-11-20T02:26:46;3.10;;;2.90;;
8580;SDS011;4328;48.622;9.230;2022-11-20T02:29:14;5.03;;;2.80;;
8580;SDS011;4328;48.622;9.230;2022-11-20T02:31:42;3.27;;;2.80;;
8580;SDS011;4328;48.622;9.230;2022-11-20T02:34:09;3.40;;;2.70;;
8580;SDS011;4328;48.622;9.230;2022-11-20T02:36:36;3.53;;;3.23;;
8580;SDS011;4328;48.622;9.230;2022-11-20T02:39:03;4.50;;;3.63;;
8580;SDS011;4328;48.622;9.230;2022-11-20T02:41:32;3.47;;;3.17;;
8580;SDS011;4328;48.622;9.230;2022-11-20T02:43:59;3.97;;;3.23;;
8580;SDS011;4328;48.622;9.230;2022-11-20T02:46:25;4.37;;;2.70;;
8580;SDS011;4328;48.622;9.230;2022-11-20T02:48:52;2.77;;;2.57;;
8580;SDS011;4328;48.622;9.230;2022-11-20T02:51:18;3.93;;;2.90;;
8580;SDS011;4328;48.622;9.230;2022-11-20T02:53:44;2.67;;;2.47;;
8580;SDS011;4328;48.622;9.230;2022-11-20T02:56:11;3.43;;;3.03;;
8580;SDS011;4328;48.622;9.230;2022-11-20T02:58:39;2.77;;;2.50;;
8580;SDS011;4328;48.622;9.230;2022-11-20T03:01:05;2.80;;;2.60;;
8580;SDS011;4328;48.622;9.230;2022-11-20T03:03:31;3.80;;;3.10;;
8580;SDS011;4328;48.622;9.230;2022-11-20T03:05:58;3.67;;;3.20;;
8580;SDS011;4328;48.622;9.230;2022-11-20T03:08:24;3.10;;;2.80;;
8580;SDS011;4328;48.622;9.230;2022-11-20T03:10:51;3.07;;;2.80;;
8580;SDS011;4328;48.622;9.230;2022-11-20T03:13:17;3.57;;;2.97;;
8580;SDS011;4328;48.622;9.230;2022-11-20T03:15:45;3.63;;;2.90;;
8580;SDS011;4328;48.622;9.230;2022-11-20T03:18:11;3.10;;;2.80;;
8580;SDS011;4328;48.622;9.230;2022-11-20T03:20:38;4.27;;;3.00;;
8580;SDS011;4328;48.622;9.230;2022-11-20T03:23:05;4.17;;;3.33;;
8580;SDS011;4328;48.622;9.230;2022-11-20T03:25:31;3.43;;;3.13;;
8580;SDS011;4328;48.622;9.230;2022-11-20T03:27:58;3.53;;;3.20;;
8580;SDS011;4328;48.622;9.230;2022-11-20T03:30:24;4.83;;;3.23;;
8580;SDS011;4328;48.622;9.230;2022-11-20T03:32:53;3.50;;;3.20;;
8580;SDS011;4328;48.622;9.230;2022-11-20T03:35:20;4.13;;;2.90;;
8580;SDS011;4328;48.622;9.230;2022-11-20T03:37:46;3.10;;;2.80;;
8580;SDS011;4328;48.622;9.230;2022-11-20T03:40:13;3.77;;;3.40;;
8580;SDS011;4328;48.622;9.230;2022-11-20T03:42:39;3.90;;;3.20;;
8580;SDS011;4328;48.622;9.230;2022-11-20T03:45:12;3.77;;;2.87;;
8580;SDS011;4328;48.622;9.230;2022-11-20T03:47:39;4.00;;;2.73;;
8580;SDS011;4328;48.622;9.230;2022-11-20T03:50:07;3.87;;;2.60;;
8580;SDS011;4328;48.622;9.230;2022-11-20T03:52:33;2.83;;;2.63;;
8580;SDS011;4328;48.622;9.230;2022-11-20T03:55:00;2.63;;;2.43;;
8580;SDS011;4328;48.622;9.230;2022-11-20T03:57:26;3.20;;;2.67;;
8580;SDS011;4328;48.622;9.230;2022-11-20T03:59:53;2.73;;;2.53;;
8580;SDS011;4328;48.622;9.230;2022-11-20T04:02:19;2.90;;;2.60;;
8580;SDS011;4328;48.622;9.230;2022-11-20T04:04:45;2.87;;;2.67;;
8580;SDS011;4328;48.622;9.230;2022-11-20T04:07:13;2.73;;;2.53;;
8580;SDS011;4328;48.622;9.230;2022-11-20T04:09:40;3.70;;;3.30;;
8580;SDS011;4328;48.622;9.230;2022-11-20T04:12:06;3.63;;;2.70;;
8580;SDS011;4328;48.622;9.230;2022-11-20T04:14:33;3.10;;;2.40;;
8580;SDS011;4328;48.622;9.230;2022-11-20T04:16:59;3.00;;;2.63;;
8580;SDS011;4328;48.622;9.230;2022-11-20T04:19:26;3.77;;;3.27;;
8580;SDS011;4328;48.622;9.230;2022-11-20T04:21:52;5.20;;;3.50;;
8580;SDS011;4328;48.622;9.230;2022-11-20T04:24:20;6.83;;;3.43;;
8580;SDS011;4328;48.622;9.230;2022-11-20T04:26:46;3.60;;;3.00;;
8580;SDS011;4328;48.622;9.230;2022-11-20T04:29:13;3.13;;;2.70;;
8580;SDS011;4328;48.622;9.230;2022-11-20T04:31:39;4.83;;;3.40;;
8580;SDS011;4328;48.622;9.230;2022-11-20T04:34:06;3.60;;;2.80;;
8580;SDS011;4328;48.622;9.230;2022-11-20T04:36:33;3.20;;;2.90;;
8580;SDS011;4328;48.622;9.230;2022-11-20T04:39:00;3.07;;;2.83;;
8580;SDS011;4328;48.622;9.230;2022-11-20T04:41:29;3.03;;;2.80;;
8580;SDS011;4328;48.622;9.230;2022-11-20T04:43:56;2.63;;;2.43;;
8580;SDS011;4328;48.622;9.230;2022-11-20T04:46:24;5.10;;;2.60;;
8580;SDS011;4328;48.622;9.230;2022-11-20T04:48:51;2.83;;;2.63;;
8580;SDS011;4328;48.622;9.230;2022-11-20T04:51:17;2.53;;;2.23;;
8580;SDS011;4328;48.622;9.230;2022-11-20T04:53:44;2.43;;;2.23;;
8580;SDS011;4328;48.622;9.230;2022-11-20T04:56:11;3.17;;;2.30;;
8580;SDS011;4328;48.622;9.230;2022-11-20T04:58:39;2.80;;;2.50;;
8580;SDS011;4328;48.622;9.230;2022-11-20T05:01:06;3.00;;;2.70;;
8580;SDS011;4328;48.622;9.230;2022-11-20T05:03:32;2.53;;;2.33;;
8580;SDS011;4328;48.622;9.230;2022-11-20T05:05:59;2.67;;;2.27;;
8580;SDS011;4328;48.622;9.230;2022-11-20T05:08:26;2.73;;;2.40;;
8580;SDS011;4328;48.622;9.230;2022-11-20T05:10:53;2.27;;;2.07;;
8580;SDS011;4328;48.622;9.230;2022-11-20T05:13:19;2.57;;;2.10;;
8580;SDS011;4328;48.622;9.230;2022-11-20T05:15:47;4.57;;;2.07;;
8580;SDS011;4328;48.622;9.230;2022-11-20T05:18:13;3.03;;;1.97;;
8580;SDS011;4328;48.622;9.230;2022-11-20T05:20:40;3.53;;;2.13;;
8580;SDS011;4328;48.622;9.230;2022-11-20T05:23:06;2.50;;;2.30;;
8580;SDS011;4328;48.622;9.230;2022-11-20T05:25:32;2.40;;;2.20;;
8580;SDS011;4328;48.622;9.230;2022-11-20T05:27:59;2.40;;;2.20;;
8580;SDS011;4328;48.622;9.230;2022-11-20T05:30:25;2.53;;;2.33;;
8580;SDS011;4328;48.622;9.230;2022-11-20T05:32:53;2.20;;;1.90;;
8580;SDS011;4328;48.622;9.230;2022-11-20T05:35:19;1.97;;;1.77;;
8580;SDS011;4328;48.622;9.230;2022-11-20T05:37:46;3.50;;;2.07;;
8580;SDS011;4328;48.622;9.230;2022-11-20T05:40:12;3.73;;;2.10;;
8580;SDS011;4328;48.622;9.230;2022-11-20T05:42:39;2.10;;;2.00;;
8580;SDS011;4328;48.622;9.230;2022-11-20T05:45:06;2.23;;;1.80;;
8580;SDS011;4328;48.622;9.230;2022-11-20T05:47:33;3.47;;;1.93;;
8580;SDS011;4328;48.622;9.230;2022-11-20T05:50:01;2.03;;;1.60;;
8580;SDS011;4328;48.622;9.230;2022-11-20T05:52:28;3.10;;;2.00;;
8580;SDS011;4328;48.622;9.230;2022-11-20T05:54:54;1.83;;;1.73;;
8580;SDS011;4328;48.622;9.230;2022-11-20T05:57:20;2.23;;;2.00;;
8580;SDS011;4328;48.622;9.230;2022-11-20T05:59:47;2.07;;;1.93;;
8580;SDS011;4328;48.622;9.230;2022-11-20T06:02:13;3.57;;;2.23;;
8580;SDS011;4328;48.622;9.230;2022-11-20T06:04:39;2.00;;;1.90;;
8580;SDS011;4328;48.622;9.230;2022-11-20T06:07:07;2.60;;;2.07;;
8580;SDS011;4328;48.622;9.230;2022-11-20T06:09:34;1.93;;;1.83;;
8580;SDS011;4328;48.622;9.230;2022-11-20T06:12:00;2.07;;;1.90;;
8580;SDS011;4328;48.622;9.230;2022-11-20T06:14:27;2.17;;;2.00;;
8580;SDS011;4328;48.622;9.230;2022-11-20T06:16:53;2.07;;;1.87;;
8580;SDS011;4328;48.622;9.230;2022-11-20T06:19:20;2.07;;;1.97;;
8580;SDS011;4328;48.622;9.230;2022-11-20T06:21:47;2.27;;;1.97;;
8580;SDS011;4328;48.622;9.230;2022-11-20T06:24:15;2.20;;;2.00;;
8580;SDS011;4328;48.622;9.230;2022-11-20T06:26:41;2.43;;;2.07;;
8580;SDS011;4328;48.622;9.230;2022-11-20T06:29:08;2.07;;;1.93;;
8580;SDS011;4328;48.622;9.230;2022-11-20T06:31:34;2.03;;;1.93;;
8580;SDS011;4328;48.622;9.230;2022-11-20T06:34:03;2.20;;;2.00;;
8580;SDS011;4328;48.622;9.230;2022-11-20T06:36:29;2.20;;;1.87;;
8580;SDS011;4328;48.622;9.230;2022-11-20T06:38:56;1.70;;;1.60;;
8580;SDS011;4328;48.622;9.230;2022-11-20T06:41:23;2.00;;;1.80;;
8580;SDS011;4328;48.622;9.230;2022-11-20T06:43:50;1.73;;;1.43;;
8580;SDS011;4328;48.622;9.230;2022-11-20T06:46:17;2.13;;;2.00;;
8580;SDS011;4328;48.622;9.230;2022-11-20T06:48:44;2.10;;;1.90;;
8580;SDS011;4328;48.622;9.230;2022-11-20T06:51:10;1.60;;;1.50;;
8580;SDS011;4328;48.622;9.230;2022-11-20T06:53:37;2.27;;;1.70;;
8580;SDS011;4328;48.622;9.230;2022-11-20T06:56:03;1.90;;;1.60;;
8580;SDS011;4328;48.622;9.230;2022-11-20T06:58:32;2.37;;;1.70;;
8580;SDS011;4328;48.622;9.230;2022-11-20T07:00:59;2.23;;;1.80;;
8580;SDS011;4328;48.622;9.230;2022-11-20T07:03:26;2.00;;;1.90;;
8580;SDS011;4328;48.622;9.230;2022-11-20T07:05:54;2.10;;;1.90;;
8580;SDS011;4328;48.622;9.230;2022-11-20T07:08:20;2.10;;;1.90;;
8580;SDS011;4328;48.622;9.230;2022-11-20T07:10:46;2.03;;;1.83;;
8580;SDS011;4328;48.622;9.230;2022-11-20T07:13:13;1.60;;;1.50;;
8580;SDS011;4328;48.622;9.230;2022-11-20T07:15:41;1.80;;;1.70;;
8580;SDS011;4328;48.622;9.230;2022-11-20T07:18:07;1.83;;;1.73;;
8580;SDS011;4328;48.622;9.230;2022-11-20T07:20:34;2.77;;;2.10;;
8580;SDS011;4328;48.622;9.230;2022-11-20T07:23:00;2.00;;;1.80;;
8580;SDS011;4328;48.622;9.230;2022-11-20T07:25:27;2.20;;;1.83;;
8580;SDS011;4328;48.622;9.230;2022-11-20T07:27:56;3.53;;;1.70;;
8580;SDS011;4328;48.622;9.230;2022-11-20T07:30:22;1.93;;;1.83;;
8580;SDS011;4328;48.622;9.230;2022-11-20T07:32:51;2.10;;;1.70;;
8580;SDS011;4328;48.622;9.230;2022-11-20T07:35:18;1.80;;;1.70;;
8580;SDS011;4328;48.622;9.230;2022-11-20T07:37:44;1.87;;;1.77;;
8580;SDS011;4328;48.622;9.230;2022-11-20T07:40:12;11.13;;;9.63;;
8580;SDS011;4328;48.622;9.230;2022-11-20T07:42:38;1.93;;;1.83;;
8580;SDS011;4328;48.622;9.230;2022-11-20T07:45:05;1.80;;;1.70;;
8580;SDS011;4328;48.622;9.230;2022-11-20T07:47:34;1.87;;;1.77;;
8580;SDS011;4328;48.622;9.230;2022-11-20T07:50:02;1.67;;;1.40;;
8580;SDS011;4328;48.622;9.230;2022-11-20T07:52:35;1.63;;;1.43;;
8580;SDS011;4328;48.622;9.230;2022-11-20T07:55:01;1.60;;;1.50;;
8580;SDS011;4328;48.622;9.230;2022-11-20T07:57:28;2.43;;;1.57;;
8580;SDS011;4328;48.622;9.230;2022-11-20T07:59:55;1.77;;;1.60;;
8580;SDS011;4328;48.622;9.230;2022-11-20T08:02:21;1.30;;;1.30;;
8580;SDS011;4328;48.622;9.230;2022-11-20T08:04:48;1.80;;;1.70;;
8580;SDS011;4328;48.622;9.230;2022-11-20T08:07:16;1.60;;;1.50;;
8580;SDS011;4328;48.622;9.230;2022-11-20T08:09:42;1.40;;;1.30;;
8580;SDS011;4328;48.622;9.230;2022-11-20T08:12:09;1.23;;;1.23;;
8580;SDS011;4328;48.622;9.230;2022-11-20T08:15:00;1.60;;;1.50;;
8580;SDS011;4328;48.622;9.230;2022-11-20T08:17:26;2.17;;;1.80;;
8580;SDS011;4328;48.622;9.230;2022-11-20T08:19:53;1.63;;;1.37;;
8580;SDS011;4328;48.622;9.230;2022-11-20T08:22:21;2.17;;;1.57;;
8580;SDS011;4328;48.622;9.230;2022-11-20T08:24:47;1.57;;;1.33;;
8580;SDS011;4328;48.622;9.230;2022-11-20T08:27:14;1.20;;;1.20;;
8580;SDS011;4328;48.622;9.230;2022-11-20T08:29:40;1.20;;;1.10;;
8580;SDS011;4328;48.622;9.230;2022-11-20T08:32:07;1.10;;;1.10;;
8580;SDS011;4328;48.622;9.230;2022-11-20T08:34:33;2.30;;;2.00;;
8580;SDS011;4328;48.622;9.230;2022-11-20T08:37:01;1.33;;;1.30;;
8580;SDS011;4328;48.622;9.230;2022-11-20T08:39:29;1.30;;;1.20;;
8580;SDS011;4328;48.622;9.230;2022-11-20T08:41:55;1.93;;;1.30;;
8580;SDS011;4328;48.622;9.230;2022-11-20T08:44:21;1.20;;;1.10;;
8580;SDS011;4328;48.622;9.230;2022-11-20T08:46:48;1.53;;;1.40;;
8580;SDS011;4328;48.622;9.230;2022-11-20T08:49:15;1.13;;;1.13;;
8580;SDS011;4328;48.622;9.230;2022-11-20T08:51:41;1.27;;;1.13;;
8580;SDS011;4328;48.622;9.230;2022-11-20T08:54:08;2.13;;;1.90;;
8580;SDS011;4328;48.622;9.230;2022-11-20T08:56:36;1.20;;;1.13;;
8580;SDS011;4328;48.622;9.230;2022-11-20T08:59:02;1.30;;;1.20;;
8580;SDS011;4328;48.622;9.230;2022-11-20T09:01:28;1.00;;;1.00;;
8580;SDS011;4328;48.622;9.230;2022-11-20T09:03:55;1.27;;;1.20;;
8580;SDS011;4328;48.622;9.230;2022-11-20T09:06:22;1.20;;;1.20;;
8580;SDS011;4328;48.622;9.230;2022-11-20T09:08:51;1.10;;;1.00;;
8580;SDS011;4328;48.622;9.230;2022-11-20T09:11:17;1.20;;;1.20;;
8580;SDS011;4328;48.622;9.230;2022-11-20T09:13:45;1.30;;;1.20;;
8580;SDS011;4328;48.622;9.230;2022-11-20T09:16:12;1.73;;;1.10;;
8580;SDS011;4328;48.622;9.230;2022-11-20T09:18:38;1.43;;;1.10;;
8580;SDS011;4328;48.622;9.230;2022-11-20T09:21:06;1.40;;;1.30;;
8580;SDS011;4328;48.622;9.230;2022-11-20T09:23:34;1.17;;;1.13;;
8580;SDS011;4328;48.622;9.230;2022-11-20T09:26:04;1.30;;;1.20;;
8580;SDS011;4328;48.622;9.230;2022-11-20T09:28:30;1.33;;;1.07;;
8580;SDS011;4328;48.622;9.230;2022-11-20T09:30:58;1.30;;;1.20;;
8580;SDS011;4328;48.622;9.230;2022-11-20T09:33:25;1.63;;;1.20;;
8580;SDS011;4328;48.622;9.230;2022-11-20T09:35:51;1.60;;;1.13;;
8580;SDS011;4328;48.622;9.230;2022-11-20T09:38:17;1.67;;;1.10;;
8580;SDS011;4328;48.622;9.230;2022-11-20T09:40:45;1.20;;;1.10;;
8580;SDS011;4328;48.622;9.230;2022-11-20T09:43:14;1.27;;;1.20;;
8580;SDS011;4328;48.622;9.230;2022-11-20T09:45:55;1.10;;;1.00;;
8580;SDS011;4328;48.622;9.230;2022-11-20T09:51:16;1.50;;;0.80;;
8580;SDS011;4328;48.622;9.230;2022-11-20T09:53:46;0.90;;;0.90;;
8580;SDS011;4328;48.622;9.230;2022-11-20T09:56:17;0.83;;;0.83;;
8580;SDS011;4328;48.622;9.230;2022-11-20T09:58:45;0.70;;;0.70;;
8580;SDS011;4328;48.622;9.230;2022-11-20T10:01:14;0.70;;;0.70;;
8580;SDS011;4328;48.622;9.230;2022-11-20T10:03:44;1.10;;;1.00;;
8580;SDS011;4328;48.622;9.230;2022-11-20T10:06:12;0.67;;;0.67;;
8580;SDS011;4328;48.622;9.230;2022-11-20T10:08:41;0.60;;;0.60;;
8580;SDS011;4328;48.622;9.230;2022-11-20T10:11:11;0.60;;;0.60;;
8580;SDS011;4328;48.622;9.230;2022-11-20T10:13:42;0.70;;;0.70;;
8580;SDS011;4328;48.622;9.230;2022-11-20T10:16:13;0.63;;;0.63;;
8580;SDS011;4328;48.622;9.230;2022-11-20T10:18:47;0.50;;;0.50;;
8580;SDS011;4328;48.622;9.230;2022-11-20T10:21:17;1.43;;;0.57;;
8580;SDS011;4328;48.622;9.230;2022-11-20T10:23:53;0.60;;;0.60;;
8580;SDS011;4328;48.622;9.230;2022-11-20T10:26:26;0.83;;;0.83;;
8580;SDS011;4328;48.622;9.230;2022-11-20T10:29:00;2.13;;;1.90;;
8580;SDS011;4328;48.622;9.230;2022-11-20T10:31:30;8.07;;;6.77;;
8580;SDS011;4328;48.622;9.230;2022-11-20T10:33:58;2.23;;;1.70;;
8580;SDS011;4328;48.622;9.230;2022-11-20T10:36:26;1.37;;;1.37;;
8580;SDS011;4328;48.622;9.230;2022-11-20T10:38:56;1.10;;;1.00;;
8580;SDS011;4328;48.622;9.230;2022-11-20T10:41:25;0.80;;;0.80;;
8580;SDS011;4328;48.622;9.230;2022-11-20T10:43:53;1.83;;;1.50;;
8580;SDS011;4328;48.622;9.230;2022-11-20T10:46:20;0.97;;;0.97;;
8580;SDS011;4328;48.622;9.230;2022-11-20T10:48:48;1.00;;;1.00;;
8580;SDS011;4328;48.622;9.230;2022-11-20T10:51:21;0.87;;;0.87;;
8580;SDS011;4328;48.622;9.230;2022-11-20T10:54:00;1.10;;;1.10;;
8580;SDS011;4328;48.622;9.230;2022-11-20T10:56:32;1.00;;;1.00;;
8580;SDS011;4328;48.622;9.230;2022-11-20T11:01:45;1.07;;;0.70;;
8580;SDS011;4328;48.622;9.230;2022-11-20T11:04:18;0.90;;;0.90;;
8580;SDS011;4328;48.622;9.230;2022-11-20T11:06:46;0.80;;;0.80;;
8580;SDS011;4328;48.622;9.230;2022-11-20T11:09:16;1.20;;;1.20;;
8580;SDS011;4328;48.622;9.230;2022-11-20T11:11:43;0.67;;;0.67;;
8580;SDS011;4328;48.622;9.230;2022-11-20T11:14:10;0.60;;;0.60;;
8580;SDS011;4328;48.622;9.230;2022-11-20T11:16:40;0.60;;;0.60;;
8580;SDS011;4328;48.622;9.230;2022-11-20T11:19:14;0.60;;;0.60;;
8580;SDS011;4328;48.622;9.230;2022-11-20T11:21:44;0.93;;;0.93;;
8580;SDS011;4328;48.622;9.230;2022-11-20T11:24:19;0.73;;;0.73;;
8580;SDS011;4328;48.622;9.230;2022-11-20T11:26:50;0.70;;;0.70;;
8580;SDS011;4328;48.622;9.230;2022-11-20T11:29:17;0.60;;;0.60;;
8580;SDS011;4328;48.622;9.230;2022-11-20T11:31:43;0.83;;;0.83;;
8580;SDS011;4328;48.622;9.230;2022-11-20T11:34:11;0.70;;;0.70;;
8580;SDS011;4328;48.622;9.230;2022-11-20T11:36:38;0.70;;;0.70;;
8580;SDS011;4328;48.622;9.230;2022-11-20T11:39:05;0.70;;;0.70;;
8580;SDS011;4328;48.622;9.230;2022-11-20T11:41:33;0.77;;;0.77;;
8580;SDS011;4328;48.622;9.230;2022-11-20T11:44:01;1.43;;;0.90;;
8580;SDS011;4328;48.622;9.230;2022-11-20T11:46:49;1.07;;;0.90;;
8580;SDS011;4328;48.622;9.230;2022-11-20T11:49:18;0.70;;;0.70;;
8580;SDS011;4328;48.622;9.230;2022-11-20T11:51:47;1.07;;;0.90;;
8580;SDS011;4328;48.622;9.230;2022-11-20T11:54:19;1.00;;;0.90;;
8580;SDS011;4328;48.622;9.230;2022-11-20T11:56:47;0.80;;;0.80;;
8580;SDS011;4328;48.622;9.230;2022-11-20T11:59:16;1.60;;;1.50;;
8580;SDS011;4328;48.622;9.230;2022-11-20T12:01:47;1.87;;;0.93;;
8580;SDS011;4328;48.622;9.230;2022-11-20T12:04:17;0.83;;;0.83;;
8580;SDS011;4328;48.622;9.230;2022-11-20T12:06:47;0.80;;;0.80;;
8580;SDS011;4328;48.622;9.230;2022-11-20T12:09:16;0.80;;;0.80;;
8580;SDS011;4328;48.622;9.230;2022-11-20T12:11:45;1.97;;;0.90;;
8580;SDS011;4328;48.622;9.230;2022-11-20T12:14:17;3.33;;;0.83;;
8580;SDS011;4328;48.622;9.230;2022-11-20T12:16:48;0.77;;;0.77;;
8580;SDS011;4328;48.622;9.230;2022-11-20T12:19:15;0.70;;;0.70;;
8580;SDS011;4328;48.622;9.230;2022-11-20T12:21:45;1.00;;;0.70;;
8580;SDS011;4328;48.622;9.230;2022-11-20T12:24:23;0.80;;;0.80;;
8580;SDS011;4328;48.622;9.230;2022-11-20T12:26:57;1.30;;;0.87;;
8580;SDS011;4328;48.622;9.230;2022-11-20T12:29:31;1.37;;;0.70;;
8580;SDS011;4328;48.622;9.230;2022-11-20T12:32:05;1.00;;;0.80;;
8580;SDS011;4328;48.622;9.230;2022-11-20T12:34:41;0.70;;;0.70;;
8580;SDS011;4328;48.622;9.230;2022-11-20T12:37:12;1.13;;;0.80;;
8580;SDS011;4328;48.622;9.230;2022-11-20T12:39:42;1.10;;;0.70;;
8580;SDS011;4328;48.622;9.230;2022-11-20T12:45:13;0.80;;;0.73;;
8580;SDS011;4328;48.622;9.230;2022-11-20T12:47:51;1.60;;;0.70;;
8580;SDS011;4328;48.622;9.230;2022-11-20T12:50:23;2.00;;;1.00;;
8580;SDS011;4328;48.622;9.230;2022-11-20T12:52:55;3.03;;;0.90;;
8580;SDS011;4328;48.622;9.230;2022-11-20T12:55:25;0.53;;;0.53;;
8580;SDS011;4328;48.622;9.230;2022-11-20T12:57:55;0.87;;;0.70;;
8580;SDS011;4328;48.622;9.230;2022-11-20T13:00:24;0.63;;;0.63;;
8580;SDS011;4328;48.622;9.230;2022-11-20T13:03:06;1.00;;;0.70;;
8580;SDS011;4328;48.622;9.230;2022-11-20T13:05:37;1.03;;;0.60;;
8580;SDS011;4328;48.622;9.230;2022-11-20T13:08:11;0.90;;;0.70;;
8580;SDS011;4328;48.622;9.230;2022-11-20T13:10:42;1.10;;;0.70;;
8580;SDS011;4328;48.622;9.230;2022-11-20T13:13:12;0.80;;;0.80;;
8580;SDS011;4328;48.622;9.230;2022-11-20T13:15:44;0.70;;;0.70;;
8580;SDS011;4328;48.622;9.230;2022-11-20T13:18:12;1.00;;;0.80;;
8580;SDS011;4328;48.622;9.230;2022-11-20T13:20:41;1.10;;;0.50;;
8580;SDS011;4328;48.622;9.230;2022-11-20T13:23:08;2.77;;;2.50;;
8580;SDS011;4328;48.622;9.230;2022-11-20T13:25:35;8.67;;;6.57;;
8580;SDS011;4328;48.622;9.230;2022-11-20T13:28:03;1.03;;;0.73;;
8580;SDS011;4328;48.622;9.230;2022-11-20T13:30:31;1.20;;;1.10;;
8580;SDS011;4328;48.622;9.230;2022-11-20T13:33:01;0.93;;;0.70;;
8580;SDS011;4328;48.622;9.230;2022-11-20T13:35:30;0.70;;;0.70;;
8580;SDS011;4328;48.622;9.230;2022-11-20T13:38:04;0.70;;;0.70;;
8580;SDS011;4328;48.622;9.230;2022-11-20T13:40:31;0.67;;;0.67;;
8580;SDS011;4328;48.622;9.230;2022-11-20T13:43:03;0.70;;;0.70;;
8580;SDS011;4328;48.622;9.230;2022-11-20T13:45:30;0.83;;;0.80;;
8580;SDS011;4328;48.622;9.230;2022-11-20T13:48:00;1.87;;;0.80;;
8580;SDS011;4328;48.622;9.230;2022-11-20T13:50:38;1.17;;;0.73;;
8580;SDS011;4328;48.622;9.230;2022-11-20T13:53:07;0.83;;;0.70;;
8580;SDS011;4328;48.622;9.230;2022-11-20T13:55:37;1.17;;;0.70;;
8580;SDS011;4328;48.622;9.230;2022-11-20T13:58:20;1.20;;;0.80;;
8580;SDS011;4328;48.622;9.230;2022-11-20T14:00:55;0.93;;;0.80;;
8580;SDS011;4328;48.622;9.230;2022-11-20T14:03:24;1.13;;;0.70;;
8580;SDS011;4328;48.622;9.230;2022-11-20T14:05:52;2.27;;;2.17;;
8580;SDS011;4328;48.622;9.230;2022-11-20T14:08:23;1.97;;;0.70;;
8580;SDS011;4328;48.622;9.230;2022-11-20T14:10:51;0.87;;;0.70;;
8580;SDS011;4328;48.622;9.230;2022-11-20T14:13:28;0.83;;;0.70;;
8580;SDS011;4328;48.622;9.230;2022-11-20T14:15:56;1.13;;;0.70;;
8580;SDS011;4328;48.622;9.230;2022-11-20T14:18:22;1.60;;;1.00;;
8580;SDS011;4328;48.622;9.230;2022-11-20T14:20:50;1.10;;;0.87;;
8580;SDS011;4328;48.622;9.230;2022-11-20T14:23:23;0.93;;;0.70;;
8580;SDS011;4328;48.622;9.230;2022-11-20T14:25:49;0.87;;;0.80;;
8580;SDS011;4328;48.622;9.230;2022-11-20T14:28:18;1.00;;;0.80;;
8580;SDS011;4328;48.622;9.230;2022-11-20T14:30:46;4.00;;;0.90;;
8580;SDS011;4328;48.622;9.230;2022-11-20T14:33:14;0.87;;;0.87;;
8580;SDS011;4328;48.622;9.230;2022-11-20T14:35:43;0.80;;;0.80;;
8580;SDS011;4328;48.622;9.230;2022-11-20T14:38:11;1.07;;;0.70;;
8580;SDS011;4328;48.622;9.230;2022-11-20T14:40:39;0.60;;;0.60;;
8580;SDS011;4328;48.622;9.230;2022-11-20T14:43:15;1.13;;;1.10;;
8580;SDS011;4328;48.622;9.230;2022-11-20T14:45:43;1.10;;;1.00;;
8580;SDS011;4328;48.622;9.230;2022-11-20T14:48:10;1.13;;;1.03;;
8580;SDS011;4328;48.622;9.230;2022-11-20T14:50:37;1.00;;;0.90;;
8580;SDS011;4328;48.622;9.230;2022-11-20T14:53:04;1.87;;;1.00;;
8580;SDS011;4328;48.622;9.230;2022-11-20T14:55:32;2.00;;;1.00;;
8580;SDS011;4328;48.622;9.230;2022-11-20T14:58:00;1.93;;;1.00;;
8580;SDS011;4328;48.622;9.230;2022-11-20T15:00:27;1.20;;;0.70;;
8580;SDS011;4328;48.622;9.230;2022-11-20T15:02:54;1.13;;;0.70;;
8580;SDS011;4328;48.622;9.230;2022-11-20T15:05:21;0.70;;;0.70;;
8580;SDS011;4328;48.622;9.230;2022-11-20T15:07:48;1.30;;;0.97;;
8580;SDS011;4328;48.622;9.230;2022-11-20T15:10:19;0.83;;;0.70;;
8580;SDS011;4328;48.622;9.230;2022-11-20T15:12:48;1.37;;;0.80;;
8580;SDS011;4328;48.622;9.230;2022-11-20T15:15:16;0.90;;;0.90;;
8580;SDS011;4328;48.622;9.230;2022-11-20T15:17:43;1.30;;;0.80;;
8580;SDS011;4328;48.622;9.230;2022-11-20T15:20:12;0.80;;;0.80;;
8580;SDS011;4328;48.622;9.230;2022-11-20T15:22:39;1.13;;;0.70;;
8580;SDS011;4328;48.622;9.230;2022-11-20T15:25:11;1.70;;;1.00;;
8580;SDS011;4328;48.622;9.230;2022-11-20T15:27:37;1.80;;;1.03;;
8580;SDS011;4328;48.622;9.230;2022-11-20T15:30:07;0.97;;;0.90;;